createdAt,value
2023-02-19T00:00:49.343Z,94297.19
2023-02-19T00:05:50.889Z,94291.03
2023-02-19T00:10:52.458Z,94295.78
2023-02-19T00:15:55.446Z,94287.41
2023-02-19T00:20:57.034Z,94276.50
2023-02-19T00:26:17.182Z,94264.91
2023-02-19T00:31:23.660Z,94262.69
2023-02-19T00:36:26.776Z,94267.31
2023-02-19T00:41:28.412Z,94259.38
2023-02-19T00:46:33.649Z,94255.47
2023-02-19T00:51:38.159Z,94248.13
2023-02-19T00:56:39.704Z,94260.66
2023-02-19T01:01:43.391Z,94250.66
2023-02-19T01:06:44.980Z,94250.44
2023-02-19T01:11:46.550Z,94244.59
2023-02-19T01:16:49.448Z,94246.53
2023-02-19T01:21:51.048Z,94234.00
2023-02-19T01:26:52.558Z,94236.97
2023-02-19T01:31:55.587Z,94238.03
2023-02-19T01:36:57.245Z,94234.19
2023-02-19T01:41:58.812Z,94226.06
2023-02-19T01:47:01.726Z,94214.31
2023-02-19T01:52:09.829Z,94219.47
2023-02-19T01:57:16.710Z,94206.91
2023-02-19T02:02:19.608Z,94208.31
2023-02-19T02:07:22.338Z,94200.97
2023-02-19T02:12:23.911Z,94202.56
2023-02-19T02:17:34.076Z,94200.91
2023-02-19T02:22:38.770Z,94162.94
2023-02-19T02:27:49.224Z,94173.59
2023-02-19T02:32:57.998Z,94169.91
2023-02-19T02:38:03.446Z,94178.16
2023-02-19T02:43:04.980Z,94185.25
2023-02-19T02:48:20.973Z,94173.19
2023-02-19T02:53:28.786Z,94172.84
2023-02-19T02:58:32.588Z,94162.97
2023-02-19T03:03:39.812Z,94154.53
2023-02-19T03:08:47.972Z,94164.63
2023-02-19T03:13:53.697Z,94158.09
2023-02-19T03:18:59.487Z,94149.94
2023-02-19T03:24:02.380Z,94140.91
2023-02-19T03:29:05.683Z,94140.00
2023-02-19T03:34:12.528Z,94122.06
2023-02-19T03:39:17.448Z,94123.34
2023-02-19T03:44:25.188Z,94133.03
2023-02-19T03:49:32.476Z,94133.84
2023-02-19T03:54:43.805Z,94133.97
2023-02-19T03:59:52.807Z,94132.41
2023-02-19T04:05:03.150Z,94133.50
2023-02-19T04:10:07.649Z,94140.34
2023-02-19T04:15:14.302Z,94150.06
2023-02-19T04:20:19.964Z,94148.50
2023-02-19T04:25:23.193Z,94152.94
2023-02-19T04:30:25.109Z,94155.25
2023-02-19T04:35:28.002Z,94153.19
2023-02-19T04:40:29.550Z,94165.66
2023-02-19T04:45:31.193Z,94173.56
2023-02-19T04:50:34.136Z,94173.16
2023-02-19T04:55:42.007Z,94174.97
2023-02-19T05:00:43.484Z,94186.97
2023-02-19T05:05:46.475Z,94178.47
2023-02-19T05:10:47.956Z,94181.88
2023-02-19T05:15:57.303Z,94181.50
2023-02-19T05:21:00.642Z,94193.06
2023-02-19T05:26:05.456Z,94201.72
2023-02-19T05:31:09.095Z,94199.44
2023-02-19T05:36:13.686Z,94208.00
2023-02-19T05:41:17.278Z,94204.09
2023-02-19T05:46:20.787Z,94202.13
2023-02-19T05:51:25.436Z,94219.09
2023-02-19T05:56:31.834Z,94222.22
2023-02-19T06:01:34.951Z,94230.72
2023-02-19T06:06:38.498Z,94234.59
2023-02-19T06:11:40.566Z,94246.97
2023-02-19T06:16:42.369Z,94245.91
2023-02-19T06:21:45.166Z,94245.47
2023-02-19T06:26:46.650Z,94258.50
2023-02-19T06:31:48.290Z,94269.38
2023-02-19T06:36:51.400Z,94278.25
2023-02-19T06:41:55.056Z,94291.56
2023-02-19T06:46:56.640Z,94300.44
2023-02-19T06:51:59.552Z,94303.22
2023-02-19T06:57:01.495Z,94314.72
2023-02-19T07:02:03.091Z,94322.94
2023-02-19T07:07:05.972Z,94334.25
2023-02-19T07:12:07.734Z,94342.50
2023-02-19T07:17:09.197Z,94359.75
2023-02-19T07:22:11.988Z,94362.31
2023-02-19T07:27:13.468Z,94360.53
2023-02-19T07:32:14.928Z,94363.19
2023-02-19T07:37:17.774Z,94368.78
2023-02-19T07:42:19.319Z,94379.94
2023-02-19T07:47:20.774Z,94390.28
2023-02-19T07:52:24.010Z,94415.47
2023-02-19T07:57:27.676Z,94422.94
2023-02-19T08:02:29.162Z,94425.22
2023-02-19T08:07:33.000Z,94426.88
2023-02-19T08:12:34.461Z,94420.66
2023-02-19T08:17:35.946Z,94431.13
2023-02-19T08:22:38.747Z,94427.72
2023-02-19T08:27:40.204Z,94436.94
2023-02-19T08:32:41.688Z,94426.75
2023-02-19T08:37:44.739Z,94431.75
2023-02-19T08:42:46.269Z,94427.00
2023-02-19T08:47:47.745Z,94436.72
2023-02-19T08:52:50.693Z,94447.41
2023-02-19T08:57:52.295Z,94460.41
2023-02-19T09:02:53.772Z,94464.22
2023-02-19T09:07:56.915Z,94464.53
2023-02-19T09:12:58.446Z,94466.72
2023-02-19T09:18:00.138Z,94455.69
2023-02-19T09:23:03.043Z,94454.03
2023-02-19T09:28:04.718Z,94463.38
2023-02-19T09:33:07.024Z,94479.84
2023-02-19T09:38:10.133Z,94483.84
2023-02-19T09:43:16.751Z,94490.22
2023-02-19T09:48:18.252Z,94497.34
2023-02-19T09:53:24.716Z,94496.06
2023-02-19T09:58:30.617Z,94502.28
2023-02-19T10:03:35.432Z,94496.91
2023-02-19T10:08:39.806Z,94499.94
2023-02-19T10:13:44.039Z,94501.41
2023-02-19T10:18:46.622Z,94501.75
2023-02-19T10:23:52.836Z,94507.94
2023-02-19T10:28:54.570Z,94516.97
2023-02-19T10:33:58.793Z,94524.19
2023-02-19T10:39:05.543Z,94523.91
2023-02-19T10:44:15.349Z,94534.91
2023-02-19T10:49:24.293Z,94528.06
2023-02-19T10:54:29.571Z,94506.72
2023-02-19T10:59:31.104Z,94515.28
2023-02-19T11:04:33.935Z,94523.63
2023-02-19T11:09:39.290Z,94533.75
2023-02-19T11:14:43.286Z,94540.47
2023-02-19T11:19:45.453Z,94535.63
2023-02-19T11:24:53.048Z,94537.56
2023-02-19T11:30:37.991Z,94530.22
2023-02-19T11:35:39.577Z,94544.41
2023-02-19T11:40:49.718Z,94534.69
2023-02-19T11:46:02.119Z,94543.50
2023-02-19T11:51:19.435Z,94536.06
2023-02-19T11:56:30.662Z,94525.97
2023-02-19T12:01:57.787Z,94536.63
2023-02-19T12:07:10.780Z,94537.81
2023-02-19T12:12:37.961Z,94546.75
2023-02-19T12:18:03.590Z,94556.00
2023-02-19T12:23:36.635Z,94558.75
2023-02-19T12:29:02.216Z,94569.84
2023-02-19T12:34:34.805Z,94565.22
2023-02-19T12:39:44.845Z,94564.72
2023-02-19T12:44:51.412Z,94553.75
2023-02-19T12:50:02.433Z,94541.22
2023-02-19T12:55:18.391Z,94545.34
2023-02-19T13:00:35.312Z,94535.47
2023-02-19T13:05:44.364Z,94531.06
2023-02-19T13:10:51.058Z,94526.47
2023-02-19T13:15:58.853Z,94525.31
2023-02-19T13:21:00.878Z,94508.03
2023-02-19T13:26:18.634Z,94509.00
2023-02-19T13:31:34.041Z,94505.19
2023-02-19T13:36:36.354Z,94514.75
2023-02-19T13:41:40.702Z,94524.47
2023-02-19T13:46:46.065Z,94516.25
2023-02-19T13:51:50.087Z,94521.72
2023-02-19T13:57:26.722Z,94538.47
2023-02-19T14:02:33.459Z,94531.31
2023-02-19T14:08:00.788Z,94531.25
2023-02-19T14:13:02.267Z,94512.09
2023-02-19T14:18:43.739Z,94513.09
2023-02-19T14:23:51.094Z,94503.28
2023-02-19T14:28:53.597Z,94497.00
2023-02-19T14:33:59.455Z,94516.53
2023-02-19T14:39:03.790Z,94519.22
2023-02-19T14:44:12.464Z,94511.81
2023-02-19T14:49:22.200Z,94502.25
2023-02-19T14:54:36.003Z,94525.50
2023-02-19T14:59:37.602Z,94526.44
2023-02-19T15:04:40.524Z,94534.19
2023-02-19T15:09:44.577Z,94530.41
2023-02-19T15:14:47.310Z,94535.34
2023-02-19T15:19:50.212Z,94541.06
2023-02-19T15:24:51.791Z,94554.28
2023-02-19T15:29:53.900Z,94564.16
2023-02-19T15:34:58.464Z,94573.25
2023-02-19T15:40:03.020Z,94583.50
2023-02-19T15:45:15.586Z,94606.84
2023-02-19T15:50:24.557Z,94617.13
2023-02-19T15:55:34.291Z,94606.41
2023-02-19T16:00:41.402Z,94591.19
2023-02-19T16:05:44.494Z,94591.84
2023-02-19T16:10:53.880Z,94593.69
2023-02-19T16:16:00.889Z,94598.38
2023-02-19T16:21:08.704Z,94617.34
2023-02-19T16:26:10.904Z,94613.38
2023-02-19T16:31:13.764Z,94606.09
2023-02-19T16:36:22.586Z,94614.03
2023-02-19T16:41:24.106Z,94618.00
2023-02-19T16:46:25.683Z,94611.59
2023-02-19T16:51:28.578Z,94620.69
2023-02-19T16:56:30.332Z,94638.19
2023-02-19T17:01:31.947Z,94629.41
2023-02-19T17:06:36.908Z,94613.47
2023-02-19T17:11:38.487Z,94624.59
2023-02-19T17:16:40.483Z,94625.78
2023-02-19T17:21:44.541Z,94637.31
2023-02-19T17:26:46.099Z,94639.34
2023-02-19T17:31:47.700Z,94650.91
2023-02-19T17:36:50.620Z,94661.03
2023-02-19T17:41:52.168Z,94662.22
2023-02-19T17:46:53.753Z,94665.47
2023-02-19T17:51:56.681Z,94677.53
2023-02-19T17:56:58.221Z,94691.78
2023-02-19T18:01:59.769Z,94696.31
2023-02-19T18:07:02.697Z,94718.47
2023-02-19T18:12:04.954Z,94718.50
2023-02-19T18:17:06.516Z,94715.53
2023-02-19T18:22:09.375Z,94723.34
2023-02-19T18:27:11.088Z,94724.69
2023-02-19T18:32:12.667Z,94720.94
2023-02-19T18:37:15.836Z,94736.81
2023-02-19T18:42:17.738Z,94756.97
2023-02-19T18:47:20.845Z,94752.44
2023-02-19T18:52:25.217Z,94739.56
2023-02-19T18:57:26.826Z,94754.38
2023-02-19T19:02:36.438Z,94746.13
2023-02-19T19:07:45.702Z,94760.03
2023-02-19T19:12:47.456Z,94759.78
2023-02-19T19:17:49.619Z,94763.75
2023-02-19T19:22:52.983Z,94763.38
2023-02-19T19:27:55.576Z,94766.03
2023-02-19T19:32:57.430Z,94757.09
2023-02-19T19:38:00.843Z,94759.56
2023-02-19T19:43:02.387Z,94767.00
2023-02-19T19:48:04.771Z,94771.72
2023-02-19T19:53:07.626Z,94775.81
2023-02-19T19:58:09.173Z,94783.97
2023-02-19T20:03:10.782Z,94780.25
2023-02-19T20:08:14.203Z,94776.84
2023-02-19T20:13:16.414Z,94780.06
2023-02-19T20:18:18.282Z,94786.63
2023-02-19T20:23:21.133Z,94788.38
2023-02-19T20:28:22.769Z,94782.66
2023-02-19T20:33:24.297Z,94782.75
2023-02-19T20:38:27.181Z,94771.22
2023-02-19T20:43:28.741Z,94748.69
2023-02-19T20:48:30.318Z,94752.16
2023-02-19T20:53:33.231Z,94757.41
2023-02-19T20:58:34.784Z,94767.59
2023-02-19T21:03:36.328Z,94781.16
2023-02-19T21:08:39.197Z,94790.41
2023-02-19T21:13:42.452Z,94792.69
2023-02-19T21:18:44.013Z,94777.50
2023-02-19T21:23:46.922Z,94776.81
2023-02-19T21:28:50.677Z,94787.38
2023-02-19T21:33:52.241Z,94770.91
2023-02-19T21:38:55.158Z,94788.84
2023-02-19T21:43:57.339Z,94799.25
2023-02-19T21:48:59.477Z,94796.16
2023-02-19T21:54:02.461Z,94790.16
2023-02-19T21:59:04.184Z,94789.81
2023-02-19T22:04:07.058Z,94789.94
2023-02-19T22:09:10.992Z,94783.28
2023-02-19T22:14:12.587Z,94776.53
2023-02-19T22:19:14.072Z,94775.19
2023-02-19T22:24:19.010Z,94776.81
2023-02-19T22:29:20.556Z,94783.50
2023-02-19T22:34:22.202Z,94795.13
2023-02-19T22:39:26.535Z,94786.34
2023-02-19T22:44:28.054Z,94799.72
2023-02-19T22:49:29.543Z,94804.63
2023-02-19T22:54:32.327Z,94807.66
2023-02-19T22:59:33.843Z,94795.44
2023-02-19T23:04:35.346Z,94803.69
2023-02-19T23:09:38.355Z,94808.56
2023-02-19T23:14:39.966Z,94818.03
2023-02-19T23:19:41.803Z,94820.38
2023-02-19T23:24:44.815Z,94822.00
2023-02-19T23:29:46.430Z,94826.56
2023-02-19T23:34:47.940Z,94824.75
2023-02-19T23:39:50.762Z,94830.19
2023-02-19T23:44:52.340Z,94817.75
2023-02-19T23:49:53.983Z,94816.81
2023-02-19T23:54:57.025Z,94816.16
2023-02-19T23:59:58.563Z,94814.38
